Time;durP1;ratioP1;P1;durP2;ratioP2;P2;SDS_P1;SDS_P2;PMS_P1;PMS_P2;Temp;Humidity;BMP_temperature;BMP_pressure;BME280_temperature;BME280_humidity;BME280_pressure;Samples;Min_cycle;Max_cycle;Signal;HPM_P1;HPM_P2
2022/01/12 00:00:11;;;;;;;60.47;40.10;;;;;;;-2.82;94.69;103398.13;10375095;28;20030;-78
2022/01/12 00:05:12;;;;;;;75.63;42.50;;;;;;;-2.88;95.12;103405.88;10375981;28;20108;-78
2022/01/12 00:10:12;;;;;;;53.65;35.17;;;;;;;-2.89;95.03;103409.16;10375569;28;20064;-78
2022/01/12 00:15:16;;;;;;;64.63;38.83;;;;;;;-2.90;94.70;103398.66;10372828;28;20117;-78
2022/01/12 00:20:16;;;;;;;57.25;39.95;;;;;;;-2.94;94.39;103438.31;10358027;28;20049;-78
2022/01/12 00:35:37;;;;;;;64.00;39.95;;;;;;;-2.70;94.59;103425.50;10360175;28;20045;-78
2022/01/12 00:40:42;;;;;;;62.80;39.22;;;;;;;-2.62;95.20;103428.22;10372807;28;20061;-78
2022/01/12 00:45:45;;;;;;;61.70;36.65;;;;;;;-2.67;94.38;103440.41;10375556;28;20030;-78
2022/01/12 00:50:46;;;;;;;73.53;40.78;;;;;;;-2.57;94.88;103460.56;10356548;28;20041;-78
2022/01/12 00:55:46;;;;;;;57.77;36.23;;;;;;;-2.46;94.63;103477.50;10372700;28;20050;-78
2022/01/12 01:00:50;;;;;;;64.32;37.63;;;;;;;-2.30;95.32;103488.28;10340389;28;20481;-78
2022/01/12 01:05:50;;;;;;;59.20;38.88;;;;;;;-2.16;95.38;103480.91;10373855;28;20049;-78
2022/01/12 01:10:53;;;;;;;66.47;41.88;;;;;;;-1.93;95.45;103471.31;10373709;28;20073;-78
2022/01/12 01:26:23;;;;;;;73.45;42.80;;;;;;;-1.80;95.04;103494.47;10359480;28;20367;-78
2022/01/12 01:31:32;;;;;;;62.97;39.55;;;;;;;-1.77;95.15;103510.31;10370859;28;20065;-78
2022/01/12 01:36:37;;;;;;;59.40;39.10;;;;;;;-1.73;95.52;103521.00;10372059;28;20033;-78
2022/01/12 01:41:40;;;;;;;51.72;35.42;;;;;;;-1.63;95.40;103501.03;10371339;28;20056;-78
2022/01/12 01:57:20;;;;;;;60.40;38.10;;;;;;;-1.52;95.14;103502.53;10371636;28;20029;-78
2022/01/12 02:02:21;;;;;;;75.60;41.70;;;;;;;-1.57;94.96;103485.56;10369888;28;20046;-78
2022/01/12 02:07:21;;;;;;;48.85;32.85;;;;;;;-1.75;94.85;103478.78;10372152;28;20057;-78
2022/01/12 02:12:27;;;;;;;56.17;35.90;;;;;;;-2.06;95.45;103490.84;10369511;28;20085;-78
2022/01/12 02:17:39;;;;;;;62.08;37.83;;;;;;;-2.18;94.51;103497.72;10372510;28;20413;-78
2022/01/12 02:50:35;;;;;;;64.72;37.25;;;;;;;-1.68;95.36;103468.66;10379656;28;20038;-78
2022/01/12 02:54:17;;;;;;;56.90;36.90;;;;;;;-1.84;95.32;103471.66;10378588;28;20026;-78
2022/01/12 02:59:17;;;;;;;57.80;36.83;;;;;;;-1.99;95.07;103464.38;10379332;28;20088;-78
2022/01/12 03:04:18;;;;;;;60.67;38.05;;;;;;;-2.20;94.80;103483.75;10376731;28;20034;-78
2022/01/12 03:09:18;;;;;;;63.72;39.25;;;;;;;-2.25;95.11;103495.00;10377137;28;20056;-78
2022/01/12 03:14:19;;;;;;;66.50;38.25;;;;;;;-2.24;94.78;103505.50;10377322;28;20040;-78
2022/01/12 03:19:19;;;;;;;63.00;39.88;;;;;;;-1.98;94.82;103512.44;10376483;28;20121;-79
2022/01/12 03:24:20;;;;;;;58.05;38.83;;;;;;;-1.76;95.32;103500.97;10376447;28;20555;-79
2022/01/12 03:29:20;;;;;;;59.10;38.65;;;;;;;-1.69;95.25;103502.75;10375962;28;20038;-79
2022/01/12 03:34:25;;;;;;;58.80;40.30;;;;;;;-1.59;94.91;103510.09;10377944;28;20112;-79
2022/01/12 03:39:26;;;;;;;62.50;39.78;;;;;;;-1.55;95.17;103512.38;10360703;28;20054;-79
2022/01/12 03:44:26;;;;;;;65.13;40.92;;;;;;;-1.43;95.55;103523.41;10377247;28;20080;-79
2022/01/12 03:49:27;;;;;;;59.65;37.33;;;;;;;-1.38;95.31;103532.69;10376688;28;20061;-79
2022/01/12 03:54:28;;;;;;;67.40;38.83;;;;;;;-1.32;95.00;103536.13;10376568;28;20030;-79
2022/01/12 03:59:28;;;;;;;53.05;35.60;;;;;;;-1.24;95.29;103543.25;10358318;28;20025;-79
2022/01/12 04:04:35;;;;;;;65.63;38.25;;;;;;;-1.13;95.65;103537.03;10375036;28;20065;-79
2022/01/12 04:09:35;;;;;;;56.00;35.13;;;;;;;-1.13;95.27;103533.50;10376109;28;20045;-78
2022/01/12 04:14:36;;;;;;;60.45;36.22;;;;;;;-1.10;95.06;103519.47;10359162;28;20069;-79
2022/01/12 04:19:37;;;;;;;55.47;34.47;;;;;;;-1.10;94.92;103509.16;10374195;28;20136;-79
2022/01/12 04:24:38;;;;;;;54.67;31.73;;;;;;;-1.05;95.59;103515.88;10375251;28;20033;-79
2022/01/12 04:29:38;;;;;;;48.57;32.27;;;;;;;-1.02;95.13;103540.16;10373212;28;20401;-79
2022/01/12 04:34:39;;;;;;;54.78;33.90;;;;;;;-0.96;95.46;103543.56;10358992;28;20072;-79
2022/01/12 04:39:39;;;;;;;49.65;32.38;;;;;;;-0.91;95.41;103548.59;10372806;28;20088;-79
2022/01/12 04:44:44;;;;;;;51.03;31.95;;;;;;;-0.94;94.84;103575.56;10375518;28;20040;-79
2022/01/12 04:54:45;;;;;;;48.58;29.05;;;;;;;-0.90;95.57;103559.81;10375024;28;20121;-79
2022/01/12 05:00:03;;;;;;;49.47;27.85;;;;;;;-0.86;94.91;103544.09;10356370;28;20489;-79
2022/01/12 05:15:34;;;;;;;46.78;28.13;;;;;;;-0.82;95.65;103568.56;10373524;28;20036;-79
2022/01/12 05:20:34;;;;;;;42.85;29.48;;;;;;;-0.85;95.15;103558.81;10374955;28;20065;-79
2022/01/12 05:25:35;;;;;;;48.20;26.58;;;;;;;-0.71;95.53;103534.06;10372694;28;20112;-79
2022/01/12 05:30:36;;;;;;;54.90;31.25;;;;;;;-0.72;94.69;103540.81;10371464;28;20030;-79
2022/01/12 05:35:36;;;;;;;46.63;27.15;;;;;;;-0.71;95.33;103534.97;10339762;28;20425;-79
2022/01/12 05:40:37;;;;;;;49.65;29.73;;;;;;;-0.71;94.55;103537.53;10354285;28;20497;-79
2022/01/12 05:45:40;;;;;;;60.10;31.15;;;;;;;-0.64;95.28;103553.09;10372417;28;20029;-79
2022/01/12 05:50:40;;;;;;;62.85;35.35;;;;;;;-0.64;94.90;103558.22;10369648;28;20049;-79
2022/01/12 05:55:41;;;;;;;62.55;33.33;;;;;;;-0.62;94.72;103555.88;10371009;28;20042;-78
2022/01/12 06:00:42;;;;;;;60.60;35.03;;;;;;;-0.56;95.38;103568.63;10353274;28;20465;-82
2022/01/12 06:05:46;;;;;;;47.50;30.02;;;;;;;-0.53;94.70;103558.75;10365542;28;20112;-79
2022/01/12 06:10:46;;;;;;;53.35;32.95;;;;;;;-0.56;95.06;103556.72;10370553;28;20034;-79
2022/01/12 06:15:47;;;;;;;58.22;34.50;;;;;;;-0.60;94.58;103562.16;10369034;28;20112;-77
2022/01/12 06:20:47;;;;;;;69.00;39.60;;;;;;;-0.63;94.87;103570.38;10366727;28;20095;-79
2022/01/12 06:25:48;;;;;;;69.85;39.50;;;;;;;-0.57;95.10;103571.94;10368362;28;20477;-79
2022/01/12 06:36:08;;;;;;;58.60;38.47;;;;;;;-0.49;94.93;103567.13;10368212;28;20022;-79
2022/01/12 06:41:09;;;;;;;79.13;40.38;;;;;;;-0.46;94.68;103569.16;10350165;28;20497;-79
2022/01/12 06:46:10;;;;;;;58.92;32.22;;;;;;;-0.46;94.86;103587.19;10368873;28;20478;-79
2022/01/12 06:51:10;;;;;;;84.13;43.47;;;;;;;-0.47;94.44;103599.13;10371775;28;20092;-79
2022/01/12 06:56:15;;;;;;;72.00;40.97;;;;;;;-0.48;94.83;103615.28;10366069;28;20061;-79
2022/01/12 07:01:16;;;;;;;80.35;45.50;;;;;;;-0.42;94.80;103625.47;10336940;28;20549;-79
2022/01/12 07:06:18;;;;;;;78.40;47.60;;;;;;;-0.39;94.66;103632.69;10335738;28;20033;-79
2022/01/12 07:11:18;;;;;;;93.68;52.58;;;;;;;-0.36;94.69;103643.41;10367663;28;20089;-79
2022/01/12 07:16:19;;;;;;;95.95;50.40;;;;;;;-0.35;94.90;103655.56;10366148;28;20026;-79
2022/01/12 07:21:20;;;;;;;63.83;37.60;;;;;;;-0.31;94.78;103656.19;10350688;28;20041;-78
2022/01/12 07:26:21;;;;;;;83.68;47.40;;;;;;;-0.33;94.77;103685.00;10374584;28;20053;-78
2022/01/12 07:31:25;;;;;;;92.32;52.08;;;;;;;-0.34;95.55;103681.50;10357153;28;20033;-77
2022/01/12 07:36:26;;;;;;;94.20;52.97;;;;;;;-0.32;95.11;103685.22;10362896;28;20033;-79
2022/01/12 07:41:26;;;;;;;109.40;52.65;;;;;;;-0.32;95.44;103685.22;10378382;28;20046;-79
2022/01/12 07:46:27;;;;;;;97.55;56.10;;;;;;;-0.22;94.86;103689.03;10358970;28;20034;-79
2022/01/12 07:51:27;;;;;;;85.20;46.88;;;;;;;-0.26;95.31;103689.34;10371890;28;20425;-79
2022/01/12 07:56:28;;;;;;;91.72;53.22;;;;;;;-0.23;94.53;103688.13;10380623;28;20028;-78
2022/01/12 08:01:28;;;;;;;100.75;52.53;;;;;;;-0.22;95.08;103686.47;10376899;28;20040;-78
2022/01/12 08:06:29;;;;;;;107.32;55.08;;;;;;;-0.15;94.81;103696.88;10357141;28;20022;-77
2022/01/12 08:11:33;;;;;;;114.05;60.40;;;;;;;-0.15;94.90;103696.88;10366581;28;20061;-78
2022/01/12 08:16:33;;;;;;;102.10;58.00;;;;;;;-0.12;95.35;103711.84;10366526;28;20482;-78
2022/01/12 08:21:34;;;;;;;125.15;64.05;;;;;;;-0.08;95.44;103720.16;10355516;28;20053;-78
2022/01/12 08:26:35;;;;;;;145.68;65.30;;;;;;;-0.02;94.92;103730.41;10348316;28;20027;-78
2022/01/12 08:31:35;;;;;;;137.13;70.80;;;;;;;0.01;94.86;103730.81;10353461;28;20068;-77
2022/01/12 08:36:40;;;;;;;125.32;63.55;;;;;;;0.07;94.84;103747.09;10369397;28;20438;-80
2022/01/12 08:41:41;;;;;;;139.25;67.05;;;;;;;0.14;95.27;103754.00;10351076;28;20057;-80
2022/01/12 08:46:43;;;;;;;141.88;64.40;;;;;;;0.17;95.29;103768.97;10372830;28;20042;-80
2022/01/12 08:51:44;;;;;;;144.93;66.70;;;;;;;0.15;94.88;103771.31;10371297;28;20042;-80
2022/01/12 08:56:52;;;;;;;139.80;72.00;;;;;;;0.24;94.93;103771.66;10352765;28;20026;-79
2022/01/12 09:01:53;;;;;;;135.10;69.60;;;;;;;0.35;95.05;103766.31;10370669;28;20042;-79
2022/01/12 09:06:57;;;;;;;154.23;73.97;;;;;;;0.40;95.44;103766.91;10356525;28;20032;-80
2022/01/12 09:12:02;;;;;;;163.82;78.68;;;;;;;0.43;95.48;103775.06;10356555;28;20021;-79
2022/01/12 09:17:02;;;;;;;187.50;79.90;;;;;;;0.50;95.30;103780.31;10370267;28;20083;-81
2022/01/12 09:22:03;;;;;;;162.25;77.95;;;;;;;0.51;94.96;103782.19;10384848;28;20076;-80
2022/01/12 09:27:04;;;;;;;158.48;74.10;;;;;;;0.53;95.08;103780.75;10369513;28;20165;-79
2022/01/12 09:32:04;;;;;;;181.60;78.30;;;;;;;0.58;95.41;103778.81;10388740;28;20548;-79
2022/01/12 09:37:05;;;;;;;175.75;77.15;;;;;;;0.66;95.46;103782.41;10410523;28;20031;-80
2022/01/12 09:42:06;;;;;;;178.20;76.60;;;;;;;0.75;95.20;103780.16;10383127;28;20145;-81
2022/01/12 09:47:06;;;;;;;181.25;80.88;;;;;;;0.79;94.57;103788.47;10372292;28;20057;-81
2022/01/12 09:52:07;;;;;;;179.55;76.50;;;;;;;0.85;95.46;103797.03;10372828;28;20108;-82
2022/01/12 09:57:07;;;;;;;176.60;78.70;;;;;;;0.96;95.22;103810.44;10381187;28;20068;-79
2022/01/12 10:02:16;;;;;;;194.23;80.93;;;;;;;0.97;95.46;103817.47;10338027;28;20041;-80
2022/01/12 10:07:21;;;;;;;176.80;77.80;;;;;;;0.94;94.97;103822.19;10352293;28;20120;-80
2022/01/12 10:12:22;;;;;;;202.18;76.72;;;;;;;0.94;94.97;103818.00;10337246;28;20481;-80
2022/01/12 10:17:40;;;;;;;189.23;79.67;;;;;;;1.00;94.86;103823.97;10368337;28;20030;-80
2022/01/12 10:23:10;;;;;;;190.85;83.05;;;;;;;1.08;94.77;103827.56;10353130;28;20041;-80
2022/01/12 10:28:13;;;;;;;193.18;79.57;;;;;;;1.23;94.85;103822.59;10354714;28;20037;-81
2022/01/12 10:33:14;;;;;;;205.15;80.25;;;;;;;1.34;94.62;103814.63;10338408;28;20040;-79
2022/01/12 10:38:16;;;;;;;176.68;82.93;;;;;;;1.50;94.79;103814.06;10343752;28;20057;-79
2022/01/12 10:43:27;;;;;;;196.20;78.37;;;;;;;1.59;94.50;103817.84;10349461;28;20034;-79
2022/01/12 10:48:47;;;;;;;177.63;76.05;;;;;;;1.66;94.25;103807.59;10365576;28;20105;-78
2022/01/12 10:53:49;;;;;;;172.68;76.10;;;;;;;1.66;93.64;103807.59;10338932;28;20030;-79
2022/01/12 10:58:51;;;;;;;182.65;76.10;;;;;;;1.83;93.52;103811.47;10337777;28;20121;-80
2022/01/12 11:03:51;;;;;;;166.70;75.43;;;;;;;1.89;93.55;103820.00;10347206;28;20124;-79
2022/01/12 11:08:52;;;;;;;165.25;76.05;;;;;;;1.90;93.08;103821.88;10358583;28;20580;-79
2022/01/12 11:13:52;;;;;;;164.77;73.85;;;;;;;2.06;92.85;103824.81;10359038;28;20030;-81
2022/01/12 11:18:54;;;;;;;166.60;69.32;;;;;;;2.15;92.82;103830.22;10361009;28;20447;-80
2022/01/12 11:23:58;;;;;;;152.27;66.38;;;;;;;2.05;92.36;103829.03;10349915;28;20393;-78
2022/01/12 11:28:59;;;;;;;131.43;64.35;;;;;;;2.07;91.75;103834.41;10373576;28;20060;-77
2022/01/12 11:33:59;;;;;;;148.95;66.88;;;;;;;2.05;92.02;103836.78;10374973;28;20037;-78
2022/01/12 11:39:09;;;;;;;148.38;65.90;;;;;;;2.10;92.00;103844.19;10357210;28;20046;-78
2022/01/12 11:44:12;;;;;;;150.30;60.63;;;;;;;2.23;91.96;103834.72;10344009;28;20122;-79
2022/01/12 11:49:24;;;;;;;165.80;61.42;;;;;;;2.20;91.55;103842.06;10374049;28;20037;-79
2022/01/12 11:54:38;;;;;;;142.23;64.88;;;;;;;2.18;91.50;103851.28;10375467;28;20053;-79
2022/01/12 11:59:58;;;;;;;116.63;51.17;;;;;;;2.44;91.31;103846.91;10364976;28;20386;-80
2022/01/12 12:05:00;;;;;;;95.95;48.67;;;;;;;2.52;90.73;103834.94;10341050;28;20033;-80
2022/01/12 12:10:09;;;;;;;98.13;49.50;;;;;;;2.52;90.70;103829.78;10357533;28;20113;-81
2022/01/12 12:15:15;;;;;;;92.60;44.63;;;;;;;2.49;90.62;103819.03;10370566;28;20022;-81
2022/01/12 12:20:18;;;;;;;101.03;51.90;;;;;;;2.48;90.71;103814.59;10369313;28;20025;-80
2022/01/12 12:25:25;;;;;;;;;;;;;;;2.49;90.60;103830.34;10367676;28;20378;-81
2022/01/12 12:30:32;;;;;;;91.70;47.10;;;;;;;2.49;90.36;103820.00;10336919;28;19918;-79
2022/01/12 12:35:50;;;;;;;;;;;;;;;2.51;90.41;103821.84;10359847;28;20504;-81
2022/01/12 12:40:55;;;;;;;87.13;46.65;;;;;;;2.56;90.70;103831.13;10376319;28;19924;-83
2022/01/12 12:46:05;;;;;;;83.75;46.42;;;;;;;2.55;90.61;103826.69;10323709;28;20038;-81
2022/01/12 12:51:14;;;;;;;91.53;46.08;;;;;;;2.57;91.10;103844.22;10370827;28;20075;-80
2022/01/12 12:56:17;;;;;;;100.45;50.80;;;;;;;2.73;90.45;103833.25;10354033;28;20488;-79
2022/01/12 13:01:18;;;;;;;79.53;44.53;;;;;;;2.66;90.16;103825.44;10353174;28;20030;-79
2022/01/12 13:06:26;;;;;;;91.00;46.10;;;;;;;2.60;90.51;103815.25;10363835;28;20497;-81
2022/01/12 13:11:28;;;;;;;79.68;43.00;;;;;;;2.59;90.43;103810.81;10372316;28;20065;-80
2022/01/12 13:16:29;;;;;;;81.22;45.55;;;;;;;2.54;90.50;103799.88;10350306;28;20080;-79
2022/01/12 13:21:31;;;;;;;82.00;48.42;;;;;;;2.53;90.87;103794.53;10367391;28;20103;-79
2022/01/12 13:26:32;;;;;;;71.57;41.38;;;;;;;2.60;90.97;103799.75;10333975;28;20034;-81
2022/01/12 13:31:33;;;;;;;80.40;41.15;;;;;;;2.54;91.05;103807.63;10368511;28;20018;-81
2022/01/12 13:36:34;;;;;;;85.70;43.65;;;;;;;2.54;91.47;103804.13;10367131;28;20061;-80
2022/01/12 13:41:36;;;;;;;69.22;35.25;;;;;;;2.56;91.10;103815.59;10337007;28;20080;-79
2022/01/12 13:52:16;;;;;;;87.38;44.45;;;;;;;2.58;90.99;103814.13;10347225;28;20088;-81
2022/01/12 13:57:17;;;;;;;78.18;44.17;;;;;;;2.55;91.40;103806.91;10343637;28;20100;-80
2022/01/12 14:02:20;;;;;;;83.43;38.20;;;;;;;2.56;90.94;103802.66;10351949;28;20072;-78
2022/01/12 14:07:23;;;;;;;88.28;44.92;;;;;;;2.49;90.86;103801.88;10339537;28;20041;-78
2022/01/12 14:12:26;;;;;;;78.00;41.80;;;;;;;2.54;91.44;103806.72;10349846;28;20469;-79
2022/01/12 14:17:36;;;;;;;80.05;46.38;;;;;;;2.54;91.15;103807.63;10371270;28;20021;-80
2022/01/12 14:22:46;;;;;;;62.35;30.45;;;;;;;2.49;91.22;103813.88;10339393;28;20065;-78
2022/01/12 14:27:48;;;;;;;66.20;33.90;;;;;;;2.58;90.92;103821.91;10367391;28;20080;-80
2022/01/12 14:32:49;;;;;;;60.92;30.95;;;;;;;2.54;90.59;103835.16;10354202;28;20033;-79
2022/01/12 14:37:50;;;;;;;52.30;25.65;;;;;;;2.45;90.82;103841.00;10370282;28;20046;-79
2022/01/12 14:42:56;;;;;;;53.38;28.90;;;;;;;2.40;90.74;103842.06;10379481;28;20042;-79
2022/01/12 14:47:58;;;;;;;49.35;27.10;;;;;;;2.26;90.88;103840.28;10378237;28;20072;-79
2022/01/12 14:52:59;;;;;;;41.05;23.52;;;;;;;2.18;90.86;103826.38;10377236;28;20026;-79
2022/01/12 14:58:00;;;;;;;45.60;26.15;;;;;;;2.14;91.19;103830.94;10377419;28;20026;-77
2022/01/12 15:03:06;;;;;;;54.78;26.83;;;;;;;2.09;91.83;103834.59;10381104;28;20045;-79
2022/01/12 15:08:07;;;;;;;51.13;25.63;;;;;;;2.07;91.98;103838.63;10335884;28;20053;-78
2022/01/12 15:13:23;;;;;;;58.35;27.45;;;;;;;2.02;92.00;103838.03;10373137;28;20041;-79
2022/01/12 15:18:25;;;;;;;57.72;30.67;;;;;;;2.00;92.12;103837.84;10321994;28;20848;-77
2022/01/12 15:23:26;;;;;;;53.78;29.58;;;;;;;1.92;92.67;103833.31;10370785;28;20076;-78
2022/01/12 15:28:26;;;;;;;57.35;29.92;;;;;;;1.86;92.86;103845.44;10375317;28;20080;-78
2022/01/12 15:33:27;;;;;;;61.97;30.10;;;;;;;1.85;93.13;103834.19;10378509;28;20022;-78
2022/01/12 15:38:27;;;;;;;56.83;26.48;;;;;;;1.86;92.94;103825.72;10339115;28;20096;-78
2022/01/12 15:43:28;;;;;;;56.70;27.67;;;;;;;1.85;92.73;103822.91;10343257;28;20061;-78
2022/01/12 15:48:29;;;;;;;58.13;27.48;;;;;;;1.80;92.48;103830.09;10374585;28;20030;-78
2022/01/12 15:53:29;;;;;;;64.28;34.40;;;;;;;1.75;92.26;103844.06;10359319;28;20491;-78
2022/01/12 15:58:30;;;;;;;56.25;27.70;;;;;;;1.71;92.70;103852.13;10358504;28;20070;-78
2022/01/12 16:03:32;;;;;;;60.45;31.23;;;;;;;1.70;92.72;103858.91;10387830;28;20033;-78
2022/01/12 16:08:32;;;;;;;65.47;30.27;;;;;;;1.76;92.79;103853.66;10382054;28;20477;-79
2022/01/12 16:13:33;;;;;;;54.47;31.55;;;;;;;1.69;92.89;103857.06;10374336;28;20053;-79
2022/01/12 16:18:35;;;;;;;55.53;27.88;;;;;;;1.73;92.89;103867.06;10344525;28;20116;-78
2022/01/12 16:23:36;;;;;;;53.28;28.75;;;;;;;1.67;92.64;103870.50;10362374;28;20057;-78
2022/01/12 16:28:36;;;;;;;45.55;25.35;;;;;;;1.63;92.93;103882.06;10370930;28;20121;-80
2022/01/12 16:33:37;;;;;;;49.80;26.88;;;;;;;1.62;92.53;103885.38;10366842;28;20037;-78
2022/01/12 16:38:37;;;;;;;51.88;25.90;;;;;;;1.60;92.52;103887.78;10391847;28;20683;-79
2022/01/12 16:43:38;;;;;;;47.50;25.75;;;;;;;1.58;93.04;103886.66;10344995;28;20025;-78
2022/01/12 16:48:39;;;;;;;56.15;29.55;;;;;;;1.57;92.97;103894.19;10358641;28;20112;-78
2022/01/12 16:53:40;;;;;;;57.80;31.23;;;;;;;1.52;93.09;103913.28;10372257;28;20026;-78
2022/01/12 16:58:42;;;;;;;64.90;29.83;;;;;;;1.51;92.74;103907.22;10357334;28;20045;-78
2022/01/12 17:03:44;;;;;;;46.05;28.45;;;;;;;1.52;92.74;103911.66;10344141;28;20022;-78
2022/01/12 17:08:46;;;;;;;62.53;28.35;;;;;;;1.54;92.97;103911.84;10373798;28;20025;-78
2022/01/12 17:13:49;;;;;;;65.13;25.75;;;;;;;1.53;92.78;103909.97;10385153;28;20183;-79
2022/01/12 17:18:54;;;;;;;45.33;24.17;;;;;;;1.51;92.63;103909.78;10369964;28;20030;-79
2022/01/12 17:24:10;;;;;;;52.00;25.58;;;;;;;1.52;92.92;103908.13;10353933;28;20026;-79
2022/01/12 17:29:13;;;;;;;49.30;27.95;;;;;;;1.48;92.75;103911.97;10372555;28;20105;-78
2022/01/12 17:34:16;;;;;;;54.08;26.65;;;;;;;1.60;93.21;103898.09;10354889;28;20393;-79
2022/01/12 17:39:20;;;;;;;60.10;30.30;;;;;;;1.54;93.13;103906.69;10357445;28;20413;-79
2022/01/12 17:44:22;;;;;;;61.15;31.00;;;;;;;1.51;92.73;103906.28;10355373;28;20050;-79
2022/01/12 17:49:26;;;;;;;58.95;32.25;;;;;;;1.46;92.84;103918.56;10366058;28;20064;-78
2022/01/12 17:54:27;;;;;;;69.40;35.30;;;;;;;1.45;92.56;103932.22;10369532;28;20117;-81
2022/01/12 17:59:27;;;;;;;81.63;39.65;;;;;;;1.54;92.29;103941.19;10371042;28;20029;-82
2022/01/12 18:04:27;;;;;;;73.97;35.92;;;;;;;1.59;91.34;103939.19;10369354;28;20062;-79
2022/01/12 18:09:28;;;;;;;76.70;36.03;;;;;;;1.47;91.44;103946.25;10351798;28;20539;-78
2022/01/12 18:14:29;;;;;;;72.65;36.95;;;;;;;1.44;91.83;103944.16;10370244;28;20088;-78
2022/01/12 18:19:41;;;;;;;76.70;40.60;;;;;;;1.36;91.44;103943.88;10367442;28;20070;-77
2022/01/12 18:24:42;;;;;;;66.88;34.90;;;;;;;1.39;91.03;103949.44;10339140;28;20045;-80
2022/01/12 18:29:44;;;;;;;69.88;38.10;;;;;;;1.42;91.31;103948.19;10352741;28;20026;-79
2022/01/12 18:34:45;;;;;;;;;;;;;;;1.53;90.65;103941.91;10369784;28;20142;-78
2022/01/12 18:39:50;;;;;;;96.72;36.40;;;;;;;1.43;90.97;103949.13;10369726;28;19971;-79
2022/01/12 18:44:51;;;;;;;59.58;34.50;;;;;;;1.40;91.06;103948.72;10360520;28;20034;-80
2022/01/12 18:49:51;;;;;;;74.43;35.53;;;;;;;1.37;90.90;103968.97;10351399;28;20030;-80
2022/01/12 18:54:53;;;;;;;62.05;32.90;;;;;;;1.34;91.37;103963.41;10369403;28;20014;-79
2022/01/12 18:59:54;;;;;;;;;;;;;;;1.33;91.47;103967.59;10368884;28;20249;-80
2022/01/12 19:04:54;;;;;;;57.97;30.58;;;;;;;1.31;91.93;103972.56;10367035;28;19924;-78
2022/01/12 19:09:55;;;;;;;63.58;35.45;;;;;;;1.30;90.95;103983.63;10350651;28;20072;-78
2022/01/12 19:14:57;;;;;;;59.45;32.15;;;;;;;1.37;90.97;103980.19;10350478;28;20025;-78
2022/01/12 19:20:00;;;;;;;65.95;32.20;;;;;;;1.31;90.19;103989.69;10369759;28;20049;-79
2022/01/12 19:25:01;;;;;;;58.67;29.90;;;;;;;1.25;90.29;103996.59;10375782;28;20132;-78
2022/01/12 19:30:02;;;;;;;55.08;31.15;;;;;;;1.23;90.86;103985.16;10375001;28;20115;-82
2022/01/12 19:35:02;;;;;;;60.70;33.10;;;;;;;1.25;90.80;103988.88;10373252;28;20030;-81
2022/01/12 19:40:03;;;;;;;65.28;33.33;;;;;;;1.21;90.31;103992.69;10357623;28;20269;-78
2022/01/12 19:45:04;;;;;;;58.10;32.17;;;;;;;1.20;90.84;103989.88;10377169;28;20034;-78
2022/01/12 19:50:05;;;;;;;63.75;32.53;;;;;;;1.34;90.36;103995.28;10377335;28;20072;-78
2022/01/12 19:55:12;;;;;;;;;;;;;;;1.33;90.30;104003.75;10374970;28;20470;-78
2022/01/12 20:00:18;;;;;;;58.97;29.65;;;;;;;1.26;90.64;104012.31;10374930;28;20292;-78
2022/01/12 20:05:19;;;;;;;58.70;31.52;;;;;;;1.27;90.32;104019.34;10358434;28;20034;-78
2022/01/12 20:10:20;;;;;;;51.83;31.25;;;;;;;1.18;90.47;104018.09;10359553;28;20081;-78
2022/01/12 20:15:20;;;;;;;56.85;35.17;;;;;;;1.17;90.78;104011.06;10373615;28;20026;-78
2022/01/12 20:26:08;;;;;;;65.13;36.97;;;;;;;1.20;90.69;104000.22;10373426;28;20046;-78
2022/01/12 20:31:09;;;;;;;54.97;29.00;;;;;;;1.30;90.24;103993.00;10375285;28;20112;-78
2022/01/12 20:36:09;;;;;;;67.03;32.90;;;;;;;1.25;89.89;103989.81;10374546;28;20033;-78
2022/01/12 20:41:10;;;;;;;57.05;34.25;;;;;;;1.19;90.16;103980.28;10374393;28;20062;-78
2022/01/12 20:46:11;;;;;;;65.20;36.42;;;;;;;1.16;89.94;103981.75;10373036;28;20034;-78
2022/01/12 20:51:12;;;;;;;67.30;32.10;;;;;;;1.15;90.25;103994.44;10373137;28;20396;-78
2022/01/12 20:56:12;;;;;;;76.70;36.17;;;;;;;1.10;90.80;104004.13;10373193;28;20037;-78
2022/01/12 21:01:14;;;;;;;68.80;33.63;;;;;;;1.16;90.77;104004.97;10373616;28;20117;-78
2022/01/12 21:06:14;;;;;;;69.55;36.75;;;;;;;1.16;90.52;104004.97;10394023;28;20075;-78
2022/01/12 21:11:15;;;;;;;71.68;39.50;;;;;;;1.13;90.53;104004.53;10372032;28;20030;-78
2022/01/12 21:16:15;;;;;;;73.20;36.88;;;;;;;1.16;90.51;104012.69;10372296;28;20375;-78
2022/01/12 21:21:16;;;;;;;75.07;36.28;;;;;;;1.16;90.44;104006.63;10355693;28;20034;-78
2022/01/12 21:26:16;;;;;;;75.40;37.97;;;;;;;1.12;90.24;104007.84;10371538;28;20466;-78
2022/01/12 21:31:17;;;;;;;85.65;42.90;;;;;;;1.11;90.48;104012.81;10372018;28;20056;-79
2022/01/12 21:36:20;;;;;;;81.70;40.20;;;;;;;1.06;90.74;104017.31;10368087;28;20080;-79
2022/01/12 21:41:21;;;;;;;68.72;39.15;;;;;;;1.02;90.45;104017.63;10375236;28;20137;-77
2022/01/12 21:46:23;;;;;;;69.75;39.55;;;;;;;1.01;90.91;104021.88;10373403;28;20053;-78
2022/01/12 21:51:24;;;;;;;81.53;40.75;;;;;;;1.01;91.34;104018.34;10379395;28;20469;-78
2022/01/12 21:56:24;;;;;;;85.95;42.95;;;;;;;1.02;91.01;104016.00;10356138;28;20021;-79
2022/01/12 22:01:25;;;;;;;99.22;43.05;;;;;;;1.00;90.80;104013.91;10357222;28;20030;-79
2022/01/12 22:06:28;;;;;;;94.25;40.28;;;;;;;0.99;90.70;104017.19;10365363;28;20025;-77
2022/01/12 22:11:28;;;;;;;94.60;46.72;;;;;;;1.02;90.83;104010.84;10369971;28;20543;-78
2022/01/12 22:16:29;;;;;;;90.13;42.95;;;;;;;1.04;90.62;104010.09;10369462;28;20112;-78
2022/01/12 22:21:30;;;;;;;86.15;41.70;;;;;;;0.98;90.57;104010.19;10347626;28;20113;-78
2022/01/12 22:26:30;;;;;;;77.25;40.17;;;;;;;0.98;90.56;104003.41;10372040;28;20116;-78
2022/01/12 22:31:31;;;;;;;78.65;41.03;;;;;;;0.90;90.24;104006.56;10369452;28;20065;-78
2022/01/12 22:36:31;;;;;;;78.10;42.00;;;;;;;0.87;90.17;104001.91;10328405;28;20040;-78
2022/01/12 22:41:33;;;;;;;85.20;44.38;;;;;;;0.88;90.27;103995.13;10365643;28;20046;-78
2022/01/12 22:46:33;;;;;;;75.57;41.42;;;;;;;0.83;89.93;103986.72;10339898;28;20085;-78
2022/01/12 22:51:34;;;;;;;81.35;44.53;;;;;;;0.82;89.94;103983.97;10349818;28;20025;-78
2022/01/12 22:56:40;;;;;;;89.25;49.65;;;;;;;0.75;90.00;103991.56;10377197;28;20113;-78
2022/01/12 23:01:41;;;;;;;77.43;41.72;;;;;;;0.67;89.83;104003.38;10377645;28;20049;-78
2022/01/12 23:06:43;;;;;;;84.13;41.38;;;;;;;0.66;90.01;104005.06;10378279;28;20065;-78
2022/01/12 23:11:44;;;;;;;81.30;41.53;;;;;;;0.66;90.29;103998.94;10359410;28;20133;-78
2022/01/12 23:16:44;;;;;;;79.82;36.90;;;;;;;0.68;90.51;104003.63;10360568;28;20446;-78
2022/01/12 23:21:45;;;;;;;88.15;45.17;;;;;;;0.67;90.70;103999.19;10376393;28;20034;-78
2022/01/12 23:26:45;;;;;;;82.10;45.45;;;;;;;0.72;90.42;103997.22;10375808;28;20026;-78
2022/01/12 23:31:46;;;;;;;88.90;43.25;;;;;;;0.65;90.31;103990.31;10376185;28;20034;-78
2022/01/12 23:54:56;;;;;;;83.22;43.20;;;;;;;0.62;90.65;103996.66;10376139;28;20069;-78
2022/01/12 23:58:08;;;;;;;;;;;;;;;0.64;91.15;103992.66;10377270;28;20037;-77
